createdAt,value
2022-10-17T00:00:59.868Z,13.70
2022-10-17T00:03:35.108Z,13.70
2022-10-17T00:06:15.869Z,13.60
2022-10-17T00:08:44.041Z,13.60
2022-10-17T00:11:20.727Z,13.50
2022-10-17T00:13:49.600Z,13.50
2022-10-17T00:16:30.916Z,13.40
2022-10-17T00:18:58.953Z,13.40
2022-10-17T00:21:27.127Z,13.40
2022-10-17T00:23:55.119Z,13.40
2022-10-17T00:26:23.188Z,13.40
2022-10-17T00:28:52.442Z,13.42
2022-10-17T00:31:21.482Z,13.40
2022-10-17T00:33:51.369Z,13.40
2022-10-17T00:36:24.816Z,13.40
2022-10-17T00:38:58.911Z,13.40
2022-10-17T00:41:32.590Z,13.40
2022-10-17T00:44:05.571Z,13.38
2022-10-17T00:46:36.485Z,13.30
2022-10-17T00:49:10.395Z,13.30
2022-10-17T00:51:44.317Z,13.30
2022-10-17T00:54:13.860Z,13.32
2022-10-17T00:56:41.968Z,13.30
2022-10-17T00:59:09.889Z,13.40
2022-10-17T01:01:43.780Z,13.40
2022-10-17T01:04:11.659Z,13.40
2022-10-17T01:06:40.449Z,13.40
2022-10-17T01:09:08.350Z,13.40
2022-10-17T01:12:16.756Z,13.40
2022-10-17T01:15:38.854Z,13.40
2022-10-17T01:18:29.867Z,13.40
2022-10-17T01:21:43.010Z,13.40
2022-10-17T01:24:29.130Z,13.36
2022-10-17T01:27:38.224Z,13.30
2022-10-17T01:30:29.841Z,13.30
2022-10-17T01:33:03.079Z,13.26
2022-10-17T01:35:43.394Z,13.24
2022-10-17T01:38:16.824Z,13.28
2022-10-17T01:41:40.360Z,13.30
2022-10-17T01:44:12.633Z,13.30
2022-10-17T01:46:43.963Z,13.28
2022-10-17T01:49:12.155Z,13.30
2022-10-17T01:51:49.956Z,13.30
2022-10-17T01:54:54.628Z,13.30
2022-10-17T01:57:36.370Z,13.30
2022-10-17T02:00:07.271Z,13.30
2022-10-17T02:02:41.546Z,13.26
2022-10-17T02:05:09.806Z,13.20
2022-10-17T02:07:37.583Z,13.20
2022-10-17T02:10:06.159Z,13.20
2022-10-17T02:12:58.525Z,13.14
2022-10-17T02:15:51.442Z,13.10
2022-10-17T02:18:40.544Z,13.08
2022-10-17T02:21:24.982Z,13.06
2022-10-17T02:24:19.041Z,13.08
2022-10-17T02:27:12.310Z,13.08
2022-10-17T02:30:32.902Z,13.06
2022-10-17T02:33:32.552Z,13.00
2022-10-17T02:36:06.123Z,13.00
2022-10-17T02:38:33.980Z,13.00
2022-10-17T02:41:02.283Z,13.00
2022-10-17T02:43:30.547Z,13.00
2022-10-17T02:45:58.888Z,13.00
2022-10-17T02:48:38.964Z,13.06
2022-10-17T02:51:45.814Z,13.02
2022-10-17T02:54:16.787Z,13.06
2022-10-17T02:56:53.966Z,13.04
2022-10-17T02:59:23.035Z,13.00
2022-10-17T03:01:51.807Z,13.02
2022-10-17T03:04:19.747Z,13.08
2022-10-17T03:06:48.193Z,13.10
2022-10-17T03:09:16.295Z,13.10
2022-10-17T03:11:44.171Z,13.10
2022-10-17T03:14:12.408Z,13.10
2022-10-17T03:16:40.738Z,13.10
2022-10-17T03:19:08.987Z,13.10
2022-10-17T03:21:38.465Z,13.10
2022-10-17T03:24:07.915Z,13.12
2022-10-17T03:26:35.972Z,13.20
2022-10-17T03:29:04.025Z,13.20
2022-10-17T03:31:33.417Z,13.20
2022-10-17T03:34:02.512Z,13.20
2022-10-17T03:36:30.590Z,13.20
2022-10-17T03:38:58.390Z,13.20
2022-10-17T03:41:26.418Z,13.20
2022-10-17T03:43:55.304Z,13.20
2022-10-17T03:46:24.603Z,13.20
2022-10-17T03:48:54.450Z,13.20
2022-10-17T03:51:22.286Z,13.20
2022-10-17T03:53:52.864Z,13.20
2022-10-17T03:56:25.093Z,13.20
2022-10-17T03:58:57.764Z,13.20
2022-10-17T04:01:25.838Z,13.20
2022-10-17T04:03:56.371Z,13.20
2022-10-17T04:06:24.533Z,13.20
2022-10-17T04:08:52.437Z,13.20
2022-10-17T04:11:28.017Z,13.20
2022-10-17T04:14:02.104Z,13.14
2022-10-17T04:16:30.643Z,13.10
2022-10-17T04:19:01.392Z,13.10
2022-10-17T04:21:32.622Z,13.10
2022-10-17T04:24:06.339Z,13.10
2022-10-17T04:26:43.540Z,13.10
2022-10-17T04:29:11.584Z,13.04
2022-10-17T04:31:40.329Z,13.00
2022-10-17T04:34:15.578Z,13.00
2022-10-17T04:36:43.786Z,13.00
2022-10-17T04:39:11.651Z,12.90
2022-10-17T04:41:40.511Z,12.90
2022-10-17T04:44:10.053Z,12.84
2022-10-17T04:46:40.144Z,12.80
2022-10-17T04:49:09.074Z,12.80
2022-10-17T04:51:38.255Z,12.80
2022-10-17T04:54:26.471Z,12.80
2022-10-17T04:56:59.437Z,12.74
2022-10-17T04:59:28.811Z,12.70
2022-10-17T05:02:05.455Z,12.70
2022-10-17T05:04:33.832Z,12.68
2022-10-17T05:07:02.061Z,12.68
2022-10-17T05:09:44.661Z,12.66
2022-10-17T05:12:12.900Z,12.60
2022-10-17T05:14:43.737Z,12.62
2022-10-17T05:17:11.599Z,12.68
2022-10-17T05:19:39.803Z,12.70
2022-10-17T05:22:08.096Z,12.70
2022-10-17T05:24:35.871Z,12.70
2022-10-17T05:27:04.294Z,12.70
2022-10-17T05:29:32.159Z,12.70
2022-10-17T05:32:07.608Z,12.70
2022-10-17T05:34:35.789Z,12.70
2022-10-17T05:37:03.649Z,12.70
2022-10-17T05:39:32.634Z,12.70
2022-10-17T05:42:00.642Z,12.70
2022-10-17T05:44:28.880Z,12.70
2022-10-17T05:46:59.302Z,12.80
2022-10-17T05:49:45.000Z,12.80
2022-10-17T05:52:15.980Z,12.90
2022-10-17T05:55:16.303Z,13.00
2022-10-17T05:57:47.312Z,13.06
2022-10-17T06:00:17.726Z,13.10
2022-10-17T06:02:49.411Z,13.20
2022-10-17T06:05:20.650Z,13.28
2022-10-17T06:07:50.284Z,13.32
2022-10-17T06:10:19.075Z,13.40
2022-10-17T06:12:47.020Z,13.50
2022-10-17T06:15:16.389Z,13.60
2022-10-17T06:17:48.355Z,13.60
2022-10-17T06:20:16.156Z,13.70
2022-10-17T06:22:44.489Z,13.78
2022-10-17T06:25:17.992Z,13.80
2022-10-17T06:27:46.467Z,13.90
2022-10-17T06:30:14.440Z,14.00
2022-10-17T06:32:42.314Z,14.10
2022-10-17T06:35:09.960Z,14.20
2022-10-17T06:37:38.437Z,14.30
2022-10-17T06:40:12.292Z,14.30
2022-10-17T06:42:41.608Z,14.40
2022-10-17T06:45:24.915Z,14.40
2022-10-17T06:48:11.384Z,14.50
2022-10-17T06:50:53.469Z,14.60
2022-10-17T06:53:25.193Z,14.64
2022-10-17T06:56:11.470Z,14.70
2022-10-17T06:58:48.285Z,14.80
2022-10-17T07:01:25.150Z,14.80
2022-10-17T07:03:56.676Z,14.90
2022-10-17T07:06:24.830Z,15.00
2022-10-17T07:08:55.873Z,15.10
2022-10-17T07:11:23.770Z,15.20
2022-10-17T07:13:52.936Z,15.30
2022-10-17T07:16:22.300Z,15.36
2022-10-17T07:18:56.692Z,15.48
2022-10-17T07:21:24.555Z,15.56
2022-10-17T07:23:52.461Z,15.70
2022-10-17T07:26:20.849Z,15.72
2022-10-17T07:28:55.382Z,15.80
2022-10-17T07:31:35.174Z,15.90
2022-10-17T07:34:02.994Z,16.00
2022-10-17T07:36:31.213Z,16.08
2022-10-17T07:39:00.869Z,16.14
2022-10-17T07:41:28.944Z,16.20
2022-10-17T07:43:56.837Z,16.30
2022-10-17T07:46:30.538Z,16.40
2022-10-17T07:48:58.315Z,16.40
2022-10-17T07:51:27.013Z,16.40
2022-10-17T07:53:54.828Z,16.44
2022-10-17T07:56:24.785Z,16.50
2022-10-17T07:58:53.282Z,16.50
2022-10-17T08:01:21.296Z,16.60
2022-10-17T08:03:49.107Z,16.60
2022-10-17T08:06:16.883Z,16.68
2022-10-17T08:08:44.783Z,16.70
2022-10-17T08:11:14.353Z,16.80
2022-10-17T08:13:42.118Z,16.80
2022-10-17T08:16:12.091Z,16.90
2022-10-17T08:18:42.732Z,17.00
2022-10-17T08:21:11.410Z,17.10
2022-10-17T08:23:39.470Z,17.20
2022-10-17T08:26:10.706Z,17.30
2022-10-17T08:28:40.060Z,17.40
2022-10-17T08:31:19.175Z,17.44
2022-10-17T08:33:48.832Z,17.50
2022-10-17T08:36:19.581Z,17.60
2022-10-17T08:38:52.442Z,17.64
2022-10-17T08:42:02.305Z,17.70
2022-10-17T08:44:56.511Z,17.80
2022-10-17T08:47:39.925Z,17.84
2022-10-17T08:50:26.330Z,17.90
2022-10-17T08:52:57.862Z,18.00
2022-10-17T08:55:45.603Z,18.08
2022-10-17T08:58:29.655Z,18.12
2022-10-17T09:01:34.007Z,18.20
2022-10-17T09:04:39.615Z,18.30
2022-10-17T09:07:22.556Z,18.40
2022-10-17T09:10:09.126Z,18.48
2022-10-17T09:12:51.830Z,18.50
2022-10-17T09:15:41.192Z,18.60
2022-10-17T09:18:22.285Z,18.70
2022-10-17T09:21:00.678Z,18.76
2022-10-17T09:23:34.447Z,18.80
2022-10-17T09:26:03.231Z,18.88
2022-10-17T09:28:41.636Z,18.90
2022-10-17T09:31:27.074Z,19.00
2022-10-17T09:33:57.250Z,19.00
2022-10-17T09:36:27.402Z,19.10
2022-10-17T09:38:58.121Z,19.18
2022-10-17T09:44:30.876Z,19.20
2022-10-17T09:47:25.729Z,19.30
2022-10-17T09:49:53.765Z,19.32
2022-10-17T09:52:32.274Z,19.40
2022-10-17T09:55:16.236Z,19.40
2022-10-17T09:58:05.206Z,19.50
2022-10-17T10:00:40.665Z,19.54
2022-10-17T10:03:17.176Z,19.60
2022-10-17T10:06:16.718Z,19.60
2022-10-17T10:09:00.591Z,19.70
2022-10-17T10:11:49.965Z,19.70
2022-10-17T10:14:28.681Z,19.80
2022-10-17T10:16:56.409Z,19.88
2022-10-17T10:19:38.629Z,19.90
2022-10-17T10:22:16.939Z,20.00
2022-10-17T10:24:44.753Z,20.00
2022-10-17T10:27:17.335Z,20.10
2022-10-17T10:29:52.225Z,20.10
2022-10-17T10:32:34.154Z,20.20
2022-10-17T10:35:26.429Z,20.30
2022-10-17T10:37:56.451Z,20.40
2022-10-17T10:40:31.947Z,20.40
2022-10-17T10:43:05.158Z,20.50
2022-10-17T10:45:47.644Z,20.50
2022-10-17T10:48:48.345Z,20.50
2022-10-17T10:51:18.551Z,20.60
2022-10-17T10:54:22.535Z,20.70
2022-10-17T10:56:53.679Z,20.70
2022-10-17T10:59:59.907Z,20.80
2022-10-17T11:02:37.806Z,20.80
2022-10-17T11:05:19.171Z,20.90
2022-10-17T11:08:00.717Z,20.94
2022-10-17T11:10:36.952Z,21.00
2022-10-17T11:13:19.644Z,21.04
2022-10-17T11:15:53.328Z,21.10
2022-10-17T11:18:51.206Z,21.18
2022-10-17T11:22:09.756Z,21.20
2022-10-17T11:24:44.683Z,21.26
2022-10-17T11:27:12.539Z,21.30
2022-10-17T11:29:41.550Z,21.40
2022-10-17T11:32:15.490Z,21.40
2022-10-17T11:34:50.274Z,21.40
2022-10-17T11:37:27.867Z,21.40
2022-10-17T11:40:31.384Z,21.50
2022-10-17T11:43:26.815Z,21.50
2022-10-17T11:46:24.683Z,21.50
2022-10-17T11:49:20.439Z,21.60
2022-10-17T11:52:05.947Z,21.60
2022-10-17T11:54:39.500Z,21.60
2022-10-17T11:57:30.670Z,21.70
2022-10-17T12:00:40.815Z,21.70
2022-10-17T12:04:14.010Z,21.80
2022-10-17T12:07:14.261Z,21.80
2022-10-17T12:10:21.227Z,21.90
2022-10-17T12:12:49.679Z,21.90
2022-10-17T12:15:20.797Z,21.96
2022-10-17T12:18:02.474Z,22.00
2022-10-17T12:20:38.110Z,22.10
2022-10-17T12:23:11.995Z,22.10
2022-10-17T12:26:01.619Z,22.10
2022-10-17T12:28:39.424Z,22.20
2022-10-17T12:31:15.781Z,22.20
2022-10-17T12:33:46.208Z,22.20
2022-10-17T12:36:17.409Z,22.30
2022-10-17T12:38:49.947Z,22.30
2022-10-17T12:41:38.027Z,22.30
2022-10-17T12:44:15.303Z,22.40
2022-10-17T12:46:56.596Z,22.40
2022-10-17T12:49:45.375Z,22.40
2022-10-17T12:52:32.089Z,22.40
2022-10-17T12:55:13.062Z,22.40
2022-10-17T12:58:00.711Z,22.40
2022-10-17T13:01:11.727Z,22.40
2022-10-17T13:03:44.456Z,22.40
2022-10-17T13:06:20.556Z,22.48
2022-10-17T13:08:55.554Z,22.40
2022-10-17T13:11:28.909Z,22.40
2022-10-17T13:13:59.439Z,22.44
2022-10-17T13:16:39.297Z,22.50
2022-10-17T13:19:18.582Z,22.50
2022-10-17T13:22:07.078Z,22.50
2022-10-17T13:24:39.978Z,22.50
2022-10-17T13:27:29.585Z,22.50
2022-10-17T13:30:01.099Z,22.40
2022-10-17T13:32:39.408Z,22.40
2022-10-17T13:35:13.408Z,22.40
2022-10-17T13:37:42.624Z,22.46
2022-10-17T13:43:21.156Z,22.52
2022-10-17T13:45:55.455Z,22.60
2022-10-17T13:48:28.054Z,22.72
2022-10-17T13:51:01.720Z,22.70
2022-10-17T13:53:40.973Z,22.70
2022-10-17T13:56:28.950Z,22.60
2022-10-17T13:59:05.100Z,22.50
2022-10-17T14:01:33.017Z,22.40
2022-10-17T14:04:09.023Z,22.34
2022-10-17T14:06:48.006Z,22.24
2022-10-17T14:09:29.390Z,22.10
2022-10-17T14:12:06.383Z,22.00
2022-10-17T14:14:58.075Z,21.90
2022-10-17T14:17:30.597Z,21.80
2022-10-17T14:23:20.952Z,21.66
2022-10-17T14:25:41.203Z,21.60
2022-10-17T14:28:15.319Z,21.50
2022-10-17T14:30:57.260Z,21.50
2022-10-17T14:33:31.156Z,21.50
2022-10-17T14:36:01.124Z,21.50
2022-10-17T14:38:29.812Z,21.58
2022-10-17T14:41:37.455Z,21.60
2022-10-17T14:44:01.478Z,21.60
2022-10-17T14:46:29.557Z,21.60
2022-10-17T14:49:14.338Z,21.50
2022-10-17T14:52:14.869Z,21.50
2022-10-17T14:54:47.309Z,21.40
2022-10-17T14:57:30.056Z,21.40
2022-10-17T14:59:58.113Z,21.30
2022-10-17T15:02:28.677Z,21.30
2022-10-17T15:04:56.955Z,21.20
2022-10-17T15:07:24.787Z,21.20
2022-10-17T15:09:54.060Z,21.10
2022-10-17T15:12:25.345Z,21.10
2022-10-17T15:14:54.016Z,21.00
2022-10-17T15:17:29.944Z,20.90
2022-10-17T15:19:58.247Z,20.88
2022-10-17T15:22:26.548Z,20.80
2022-10-17T15:24:54.491Z,20.70
2022-10-17T15:27:24.517Z,20.60
2022-10-17T15:29:53.240Z,20.50
2022-10-17T15:32:21.080Z,20.40
2022-10-17T15:34:48.862Z,20.30
2022-10-17T15:37:25.079Z,20.20
2022-10-17T15:39:54.698Z,20.10
2022-10-17T15:42:27.369Z,19.94
2022-10-17T15:44:56.061Z,19.80
2022-10-17T15:47:33.850Z,19.70
2022-10-17T15:50:02.355Z,19.60
2022-10-17T15:52:30.091Z,19.50
2022-10-17T15:55:00.873Z,19.32
2022-10-17T15:57:35.910Z,19.20
2022-10-17T16:00:06.836Z,19.10
2022-10-17T16:02:37.228Z,19.00
2022-10-17T16:05:23.245Z,18.90
2022-10-17T16:07:51.836Z,18.80
2022-10-17T16:10:20.191Z,18.70
2022-10-17T16:12:50.249Z,18.60
2022-10-17T16:15:25.682Z,18.50
2022-10-17T16:17:55.421Z,18.48
2022-10-17T16:20:24.248Z,18.40
2022-10-17T16:22:52.039Z,18.30
2022-10-17T16:25:26.638Z,18.20
2022-10-17T16:27:56.654Z,18.10
2022-10-17T16:30:27.901Z,18.00
2022-10-17T16:32:55.776Z,18.00
2022-10-17T16:35:27.286Z,17.90
2022-10-17T16:37:55.215Z,17.80
2022-10-17T16:40:22.948Z,17.70
2022-10-17T16:42:50.817Z,17.70
2022-10-17T16:45:22.900Z,17.60
2022-10-17T16:47:50.951Z,17.60
2022-10-17T16:50:20.026Z,17.50
2022-10-17T16:52:47.745Z,17.50
2022-10-17T16:55:18.903Z,17.50
2022-10-17T16:57:49.035Z,17.50
2022-10-17T17:00:17.710Z,17.40
2022-10-17T17:02:47.695Z,17.40
2022-10-17T17:05:16.049Z,17.40
2022-10-17T17:07:43.770Z,17.40
2022-10-17T17:10:11.579Z,17.40
2022-10-17T17:12:39.442Z,17.40
2022-10-17T17:15:07.814Z,17.38
2022-10-17T17:17:55.131Z,17.30
2022-10-17T17:20:23.574Z,17.30
2022-10-17T17:22:52.505Z,17.30
2022-10-17T17:25:21.713Z,17.20
2022-10-17T17:27:49.595Z,17.20
2022-10-17T17:30:18.899Z,17.10
2022-10-17T17:32:46.678Z,17.10
2022-10-17T17:35:14.758Z,17.08
2022-10-17T17:37:43.005Z,17.00
2022-10-17T17:40:11.985Z,16.98
2022-10-17T17:42:39.681Z,16.90
2022-10-17T17:45:08.641Z,16.82
2022-10-17T17:47:36.609Z,16.80
2022-10-17T17:50:05.299Z,16.80
2022-10-17T17:52:33.416Z,16.70
2022-10-17T17:55:01.366Z,16.70
2022-10-17T17:57:30.256Z,16.66
2022-10-17T17:59:57.985Z,16.60
2022-10-17T18:02:25.803Z,16.52
2022-10-17T18:04:55.232Z,16.50
2022-10-17T18:07:24.737Z,16.40
2022-10-17T18:09:52.533Z,16.30
2022-10-17T18:12:20.282Z,16.30
2022-10-17T18:14:48.228Z,16.20
2022-10-17T18:17:16.129Z,16.18
2022-10-17T18:19:44.043Z,16.10
2022-10-17T18:22:12.001Z,16.10
2022-10-17T18:24:41.581Z,16.00
2022-10-17T18:27:09.687Z,16.00
2022-10-17T18:29:37.505Z,16.00
2022-10-17T18:32:05.620Z,15.90
2022-10-17T18:34:33.355Z,15.90
2022-10-17T18:37:02.855Z,15.86
2022-10-17T18:39:31.040Z,15.80
2022-10-17T18:41:59.190Z,15.80
2022-10-17T18:44:27.160Z,15.74
2022-10-17T18:46:58.597Z,15.70
2022-10-17T18:49:29.561Z,15.70
2022-10-17T18:51:57.722Z,15.60
2022-10-17T18:54:25.530Z,15.60
2022-10-17T18:56:54.418Z,15.60
2022-10-17T18:59:22.170Z,15.60
2022-10-17T19:01:50.002Z,15.56
2022-10-17T19:04:17.930Z,15.50
2022-10-17T19:06:45.948Z,15.50
2022-10-17T19:09:14.571Z,15.50
2022-10-17T19:11:43.052Z,15.46
2022-10-17T19:14:15.107Z,15.40
2022-10-17T19:16:48.296Z,15.40
2022-10-17T19:19:25.613Z,15.34
2022-10-17T19:21:53.931Z,15.30
2022-10-17T19:24:27.023Z,15.30
2022-10-17T19:26:57.378Z,15.20
2022-10-17T19:29:27.834Z,15.20
2022-10-17T19:34:28.520Z,15.20
2022-10-17T19:36:56.295Z,15.20
2022-10-17T19:39:25.303Z,15.20
2022-10-17T19:41:53.170Z,15.20
2022-10-17T19:44:21.011Z,15.12
2022-10-17T19:46:49.499Z,15.18
2022-10-17T19:49:17.665Z,15.12
2022-10-17T19:51:45.506Z,15.10
2022-10-17T19:54:13.398Z,15.10
2022-10-17T19:56:43.606Z,15.10
2022-10-17T19:59:14.014Z,15.10
2022-10-17T20:01:42.191Z,15.00
2022-10-17T20:04:13.832Z,15.00
2022-10-17T20:06:41.741Z,15.00
2022-10-17T20:09:13.966Z,14.90
2022-10-17T20:11:44.907Z,14.90
2022-10-17T20:14:12.727Z,14.90
2022-10-17T20:16:40.580Z,14.90
2022-10-17T20:19:11.084Z,14.90
2022-10-17T20:21:39.847Z,14.80
2022-10-17T20:24:09.617Z,14.80
2022-10-17T20:26:38.966Z,14.80
2022-10-17T20:29:12.764Z,14.80
2022-10-17T20:31:42.330Z,14.80
2022-10-17T20:34:13.904Z,14.76
2022-10-17T20:36:41.810Z,14.70
2022-10-17T20:39:11.989Z,14.70
2022-10-17T20:41:40.122Z,14.70
2022-10-17T20:44:08.546Z,14.68
2022-10-17T20:46:38.452Z,14.60
2022-10-17T20:49:16.185Z,14.60
2022-10-17T20:51:44.428Z,14.60
2022-10-17T20:54:13.128Z,14.58
2022-10-17T20:56:41.056Z,14.50
2022-10-17T20:59:16.417Z,14.50
2022-10-17T21:01:45.398Z,14.50
2022-10-17T21:04:44.043Z,14.50
2022-10-17T21:07:02.000Z,14.40
2022-10-17T21:09:29.841Z,14.40
2022-10-17T21:11:57.668Z,14.40
2022-10-17T21:14:25.608Z,14.40
2022-10-17T21:16:53.436Z,14.30
2022-10-17T21:19:21.965Z,14.30
2022-10-17T21:21:50.197Z,14.30
2022-10-17T21:24:20.818Z,14.30
2022-10-17T21:26:55.426Z,14.30
2022-10-17T21:29:23.884Z,14.30
2022-10-17T21:31:51.884Z,14.24
2022-10-17T21:34:22.296Z,14.20
2022-10-17T21:36:50.334Z,14.20
2022-10-17T21:39:18.154Z,14.20
2022-10-17T21:41:45.963Z,14.20
2022-10-17T21:44:23.144Z,14.20
2022-10-17T21:50:17.352Z,14.64
2022-10-17T21:52:45.164Z,14.70
2022-10-17T21:55:12.997Z,14.80
2022-10-17T21:57:41.093Z,14.90
2022-10-17T22:00:10.444Z,15.00
2022-10-17T22:02:40.062Z,15.10
2022-10-17T22:05:08.539Z,15.10
2022-10-17T22:07:36.233Z,15.20
2022-10-17T22:10:04.948Z,15.18
2022-10-17T22:12:33.054Z,15.20
2022-10-17T22:15:01.209Z,15.20
2022-10-17T22:17:29.400Z,15.20
2022-10-17T22:19:57.480Z,15.20
2022-10-17T22:22:25.347Z,15.20
2022-10-17T22:24:53.138Z,15.18
2022-10-17T22:27:21.434Z,15.10
2022-10-17T22:29:49.355Z,15.10
2022-10-17T22:32:20.102Z,15.10
2022-10-17T22:34:50.327Z,15.00
2022-10-17T22:37:18.106Z,15.00
2022-10-17T22:39:45.834Z,15.00
2022-10-17T22:42:13.665Z,15.00
2022-10-17T22:44:41.878Z,14.94
2022-10-17T22:47:09.643Z,14.90
2022-10-17T22:49:37.446Z,14.90
2022-10-17T22:52:05.282Z,14.90
2022-10-17T22:54:33.075Z,14.88
2022-10-17T22:57:00.840Z,14.90
2022-10-17T22:59:28.669Z,14.88
2022-10-17T23:01:56.427Z,14.90
2022-10-17T23:04:24.114Z,14.90
2022-10-17T23:06:51.912Z,14.90
2022-10-17T23:09:19.691Z,14.80
2022-10-17T23:11:47.408Z,14.80
2022-10-17T23:14:15.355Z,14.80
2022-10-17T23:16:43.052Z,14.80
2022-10-17T23:19:10.734Z,14.80
2022-10-17T23:21:38.428Z,14.74
2022-10-17T23:24:06.785Z,14.70
2022-10-17T23:26:34.479Z,14.70
2022-10-17T23:29:02.265Z,14.70
2022-10-17T23:31:30.418Z,14.70
2022-10-17T23:33:58.483Z,14.70
2022-10-17T23:36:26.317Z,14.70
2022-10-17T23:38:56.466Z,14.78
2022-10-17T23:41:26.390Z,14.78
2022-10-17T23:43:54.182Z,14.74
2022-10-17T23:46:21.920Z,14.76
2022-10-17T23:48:49.666Z,14.78
2022-10-17T23:51:17.622Z,14.80
2022-10-17T23:53:45.416Z,14.80
2022-10-17T23:56:13.381Z,14.72
2022-10-17T23:58:41.159Z,14.70
